LBSF

Sofia Airport

Airport
ICAO code
LBSF
IATA Code
SOF
Summary
ICAO Region
EUR
ICAO Territory
Location

Sofia, Sofia-Capital

Serving
Sofia
Elevation
1742 ft
Coordinates
42° 41' 44" N , 23° 24' 57" E
KCC
Airport RE
Aquaplaning
Airport WX
Cumulonimbus
Metar
Observation
LBSF 271430Z 09008KT 9999 SCT039 OVC047 05/M01 Q1024 NOSIG
Station
Sofia Observ.
Date/Time
2022-11-27 14:30:00
Wind direction
90°
Wind speed
08 kts
Lowest cloud amount
scattered clouds
Temperature
5°C
Dew point
-1°C
Humidity
65%
QNH
1024 hPa
Weather condition
n/a

International airport serving the capital of Bulgaria.

Climatology

Humid “subtropical” climate (Köppen climate classification Cfa)

Runways

Designator Length Width Surface Rops
9/27 2800 45 ASP Yes/Yes

Airport map

Aerial View

SKYbrary Partners:

Safety knowledge contributed by: